FRG weather

Republic Airport
Farmingdale, New York, United States

Public forecast

Using degrees Fahrenheit for public forecast. Weather courtesy of forecast.io.

METAR (pilot weather report)

Retrieved 2019/05/21 13:53 UTC (44 minutes ago):

KFRG 211353Z 32014G23KT 10SM CLR 15/03 A2991 RMK AO2 SLP129 T01500033

TAF (pilot weather forecast)

Closest forecast is Long Island Mac Arthur Airport, 14.8 nm (27.4 km) ENE. Retrieved 2019/05/21 12:22 UTC (2 hours ago):

TAF KISP 211120Z 2112/2212 32014G21KT P6SM SCT045 SCT250 FM211500 30017G26KT P6SM FEW040 FEW250 FM212200 32015G20KT P6SM FEW250 FM220100 32008KT P6SM FEW250 FM220700 32005KT P6SM FEW250